Time;durP1;ratioP1;P1;durP2;ratioP2;P2;SDS_P1;SDS_P2;PMS_P1;PMS_P2;Temp;Humidity;BMP_temperature;BMP_pressure;BME280_temperature;BME280_humidity;BME280_pressure;Samples;Min_cycle;Max_cycle;Signal;HPM_P1;HPM_P2
2023/08/26 00:00:41;;;;;;;3.75;3.28;;;20.10;99.90;;;;;;4988841;28;20062;-83
2023/08/26 00:03:06;;;;;;;5.00;2.78;;;20.00;99.90;;;;;;5005118;28;20359;-90
2023/08/26 00:05:32;;;;;;;4.80;3.40;;;20.00;99.90;;;;;;4991766;28;20022;-90
2023/08/26 00:07:58;;;;;;;6.13;3.42;;;20.10;99.90;;;;;;5002940;28;20123;-89
2023/08/26 00:10:23;;;;;;;3.90;2.95;;;20.10;99.90;;;;;;5004302;28;20022;-86
2023/08/26 00:12:49;;;;;;;10.63;3.03;;;20.10;99.90;;;;;;5004648;28;20054;-86
2023/08/26 00:15:15;;;;;;;4.13;2.72;;;20.10;99.90;;;;;;4987214;28;20050;-85
2023/08/26 00:17:40;;;;;;;4.63;2.80;;;20.10;99.90;;;;;;4986253;28;20484;-85
2023/08/26 00:20:08;;;;;;;3.42;2.70;;;20.10;99.90;;;;;;4985867;28;20101;-85
2023/08/26 00:22:34;;;;;;;5.20;2.88;;;20.10;99.90;;;;;;4985310;28;20114;-83
2023/08/26 00:25:00;;;;;;;5.03;3.03;;;20.20;99.90;;;;;;4985493;28;20018;-87
2023/08/26 00:27:26;;;;;;;3.78;2.75;;;20.20;99.90;;;;;;5004238;28;20034;-85
2023/08/26 00:29:51;;;;;;;7.95;2.70;;;20.20;99.90;;;;;;5006025;28;20022;-85
2023/08/26 00:32:17;;;;;;;5.55;2.95;;;20.10;99.90;;;;;;4986045;28;20033;-88
2023/08/26 00:34:43;;;;;;;3.22;2.92;;;20.20;99.90;;;;;;4986944;28;20041;-87
2023/08/26 00:37:09;;;;;;;4.05;2.90;;;20.10;99.90;;;;;;5007110;28;20018;-89
2023/08/26 00:39:35;;;;;;;5.53;2.97;;;20.20;99.90;;;;;;5011204;28;20106;-88
2023/08/26 00:42:00;;;;;;;6.93;3.08;;;20.10;99.90;;;;;;5012693;28;20041;-89
2023/08/26 00:44:26;;;;;;;5.47;2.50;;;20.10;99.90;;;;;;4997031;28;20033;-86
2023/08/26 00:46:52;;;;;;;4.05;2.70;;;20.10;99.90;;;;;;5011966;28;20251;-84
2023/08/26 00:49:18;;;;;;;4.53;2.53;;;20.10;99.90;;;;;;5011091;28;20023;-86
2023/08/26 00:51:44;;;;;;;6.20;2.95;;;20.10;99.90;;;;;;5010150;28;20062;-86
2023/08/26 00:54:10;;;;;;;7.18;3.15;;;20.00;99.90;;;;;;5011822;28;20472;-85
2023/08/26 00:56:36;;;;;;;9.13;2.45;;;20.00;99.90;;;;;;5007604;28;20101;-87
2023/08/26 00:59:05;;;;;;;3.05;2.78;;;20.00;99.90;;;;;;5006779;28;20037;-82
2023/08/26 01:01:32;;;;;;;8.57;2.83;;;19.90;99.90;;;;;;5002415;28;20046;-85
2023/08/26 01:03:57;;;;;;;5.07;3.28;;;19.90;99.90;;;;;;4986811;28;20023;-82
2023/08/26 01:06:23;;;;;;;8.70;2.92;;;19.90;99.90;;;;;;5004733;28;20034;-86
2023/08/26 01:08:50;;;;;;;8.63;3.63;;;19.80;99.90;;;;;;5004835;28;20054;-86
2023/08/26 01:11:35;;;;;;;5.03;2.60;;;19.80;99.90;;;;;;5000355;28;20069;-85
2023/08/26 01:14:06;;;;;;;3.53;2.60;;;19.80;99.90;;;;;;4988914;28;20057;-84
2023/08/26 01:16:34;;;;;;;5.20;2.63;;;19.70;99.90;;;;;;4984377;28;20054;-84
2023/08/26 01:19:00;;;;;;;6.40;3.03;;;19.60;99.90;;;;;;5000093;28;20039;-86
2023/08/26 01:21:34;;;;;;;3.05;2.55;;;19.70;99.90;;;;;;4999839;28;20482;-85
2023/08/26 01:24:00;;;;;;;7.47;2.60;;;19.60;99.90;;;;;;4998651;28;20022;-85
2023/08/26 01:26:26;;;;;;;11.63;3.55;;;19.60;99.90;;;;;;4998765;28;20109;-85
2023/08/26 01:28:51;;;;;;;7.22;3.50;;;19.50;99.90;;;;;;4983405;28;20027;-85
2023/08/26 01:31:20;;;;;;;9.35;3.03;;;19.50;99.90;;;;;;4984871;28;20337;-85
2023/08/26 01:33:53;;;;;;;12.73;4.60;;;19.50;99.90;;;;;;4999928;28;20050;-82
2023/08/26 01:36:23;;;;;;;3.55;2.83;;;19.50;99.90;;;;;;4998538;28;20031;-86
2023/08/26 01:38:50;;;;;;;5.55;3.42;;;19.50;99.90;;;;;;4997818;28;20019;-86
2023/08/26 01:41:19;;;;;;;6.38;3.03;;;19.50;99.90;;;;;;4983759;28;20057;-84
2023/08/26 01:43:46;;;;;;;3.65;2.42;;;19.40;99.90;;;;;;4999286;28;20097;-83
2023/08/26 01:46:12;;;;;;;6.13;3.10;;;19.50;99.90;;;;;;4998304;28;20054;-85
2023/08/26 01:48:38;;;;;;;4.75;3.15;;;19.40;99.90;;;;;;4998614;28;20026;-86
2023/08/26 01:51:03;;;;;;;5.78;3.47;;;19.40;99.90;;;;;;4982584;28;20030;-85
2023/08/26 01:53:29;;;;;;;5.50;4.15;;;19.30;99.90;;;;;;4999274;28;20094;-84
2023/08/26 01:55:55;;;;;;;8.40;3.65;;;19.30;99.90;;;;;;4999427;28;20069;-86
2023/08/26 01:58:21;;;;;;;3.33;2.83;;;19.30;99.90;;;;;;4998113;28;20038;-86
2023/08/26 02:00:46;;;;;;;4.15;2.80;;;19.30;99.90;;;;;;4997035;28;20042;-86
2023/08/26 02:03:12;;;;;;;11.30;3.05;;;19.30;99.90;;;;;;4981694;28;20058;-85
2023/08/26 02:05:38;;;;;;;5.78;3.67;;;19.30;99.90;;;;;;4981387;28;20027;-85
2023/08/26 02:08:03;;;;;;;7.15;2.75;;;19.30;99.90;;;;;;4981604;28;20031;-82
2023/08/26 02:10:29;;;;;;;8.88;3.20;;;19.30;99.90;;;;;;4983060;28;20022;-85
2023/08/26 02:12:55;;;;;;;5.20;3.25;;;19.30;99.90;;;;;;4989403;28;20238;-85
2023/08/26 02:15:20;;;;;;;3.72;2.40;;;19.40;99.90;;;;;;4982277;28;20041;-85
2023/08/26 02:17:46;;;;;;;8.00;2.47;;;19.40;99.90;;;;;;4982308;28;20070;-84
2023/08/26 02:20:11;;;;;;;7.90;3.20;;;19.40;99.90;;;;;;4980823;28;20101;-84
2023/08/26 02:22:37;;;;;;;6.80;2.63;;;19.40;99.90;;;;;;4981174;28;20029;-85
2023/08/26 02:25:03;;;;;;;4.75;3.00;;;19.40;99.90;;;;;;4982147;28;20023;-86
2023/08/26 02:27:29;;;;;;;10.48;3.58;;;19.40;99.90;;;;;;4980140;28;20170;-86
2023/08/26 02:29:54;;;;;;;7.03;3.17;;;19.30;99.90;;;;;;4982665;28;20049;-85
2023/08/26 02:32:20;;;;;;;6.05;3.20;;;19.30;99.90;;;;;;4981385;28;20023;-86
2023/08/26 02:34:46;;;;;;;5.88;2.88;;;19.30;99.90;;;;;;4979317;28;20599;-84
2023/08/26 02:37:11;;;;;;;4.07;2.70;;;19.20;99.90;;;;;;4974477;28;20034;-84
2023/08/26 02:39:38;;;;;;;5.05;2.45;;;19.10;99.90;;;;;;4973420;28;20117;-85
2023/08/26 02:42:04;;;;;;;6.03;2.45;;;19.00;99.90;;;;;;4973238;28;20030;-84
2023/08/26 02:44:29;;;;;;;7.38;2.72;;;19.00;99.90;;;;;;4973359;28;20139;-83
2023/08/26 02:46:55;;;;;;;7.60;3.28;;;18.90;99.90;;;;;;4976670;28;20570;-85
2023/08/26 02:49:20;;;;;;;5.53;3.10;;;18.90;99.90;;;;;;4957423;28;20033;-85
2023/08/26 02:51:46;;;;;;;6.40;2.17;;;18.90;99.90;;;;;;4973173;28;20023;-84
2023/08/26 02:54:12;;;;;;;8.75;3.15;;;18.80;99.90;;;;;;4974296;28;20433;-85
2023/08/26 02:56:37;;;;;;;8.98;2.55;;;18.80;99.90;;;;;;4973875;28;20467;-84
2023/08/26 02:59:03;;;;;;;6.35;3.08;;;18.70;99.90;;;;;;4976142;28;20023;-85
2023/08/26 03:01:30;;;;;;;5.38;2.20;;;18.60;99.90;;;;;;4991718;28;20049;-84
2023/08/26 03:03:57;;;;;;;3.25;2.67;;;18.60;99.90;;;;;;4974072;28;20026;-84
2023/08/26 03:06:23;;;;;;;15.25;2.58;;;18.60;99.90;;;;;;4979051;28;20078;-82
2023/08/26 03:08:48;;;;;;;3.58;2.30;;;18.50;99.90;;;;;;4973125;28;20417;-82
2023/08/26 03:11:14;;;;;;;7.50;2.20;;;18.40;99.90;;;;;;4974909;28;20078;-82
2023/08/26 03:13:40;;;;;;;2.75;1.80;;;18.40;99.90;;;;;;4981821;28;20219;-83
2023/08/26 03:16:07;;;;;;;3.38;2.45;;;18.30;99.90;;;;;;4973032;28;20475;-81
2023/08/26 03:18:33;;;;;;;9.77;2.88;;;18.10;99.90;;;;;;4972798;28;20031;-83
2023/08/26 03:21:07;;;;;;;3.72;2.25;;;18.00;99.90;;;;;;4978299;28;20042;-84
2023/08/26 03:23:34;;;;;;;2.20;2.00;;;18.00;99.90;;;;;;4981005;28;20023;-82
2023/08/26 03:26:00;;;;;;;4.55;2.22;;;17.90;99.90;;;;;;4998314;28;20093;-83
2023/08/26 03:28:25;;;;;;;8.38;3.70;;;17.90;99.90;;;;;;4984861;28;20027;-84
2023/08/26 03:30:51;;;;;;;9.88;2.67;;;17.80;99.90;;;;;;4984386;28;20045;-84
2023/08/26 03:33:17;;;;;;;9.98;2.95;;;17.80;99.90;;;;;;4984160;28;20023;-83
2023/08/26 03:35:43;;;;;;;3.40;2.70;;;17.70;99.90;;;;;;4983963;28;20030;-84
2023/08/26 03:38:09;;;;;;;5.28;2.55;;;17.70;99.90;;;;;;4985407;28;20055;-84
2023/08/26 03:40:39;;;;;;;3.33;2.85;;;17.70;99.90;;;;;;4984123;28;20053;-83
2023/08/26 03:43:04;;;;;;;2.47;2.28;;;17.60;99.90;;;;;;4981245;28;20041;-82
2023/08/26 03:45:33;;;;;;;4.50;2.95;;;17.60;99.90;;;;;;4983559;28;20038;-82
2023/08/26 03:47:59;;;;;;;5.03;2.33;;;17.60;99.90;;;;;;4981825;28;20025;-82
2023/08/26 03:50:24;;;;;;;8.48;3.33;;;17.60;99.90;;;;;;4983641;28;20022;-81
2023/08/26 03:52:50;;;;;;;2.65;2.03;;;17.50;99.90;;;;;;4982990;28;20069;-81
2023/08/26 03:55:15;;;;;;;5.22;2.95;;;17.40;99.90;;;;;;4983270;28;20019;-83
2023/08/26 03:57:41;;;;;;;12.10;3.05;;;17.30;99.90;;;;;;4983320;28;20034;-82
2023/08/26 04:00:07;;;;;;;7.22;2.80;;;17.20;99.90;;;;;;4984608;28;20023;-82
2023/08/26 04:02:33;;;;;;;3.63;2.13;;;17.10;99.90;;;;;;4969942;28;20238;-82
2023/08/26 04:04:59;;;;;;;2.45;2.25;;;17.10;99.90;;;;;;4982894;28;20031;-82
2023/08/26 04:07:24;;;;;;;3.55;2.72;;;17.10;99.90;;;;;;4982239;28;20033;-85
2023/08/26 04:09:50;;;;;;;7.20;3.20;;;17.20;99.90;;;;;;4983569;28;20094;-83
2023/08/26 04:12:16;;;;;;;4.47;2.50;;;17.30;99.90;;;;;;4983154;28;20118;-82
2023/08/26 04:14:41;;;;;;;7.65;2.55;;;17.10;99.90;;;;;;4983889;28;20061;-87
2023/08/26 04:17:07;;;;;;;3.35;2.47;;;17.10;99.90;;;;;;4983614;28;20058;-85
2023/08/26 04:19:32;;;;;;;4.20;2.60;;;16.90;99.90;;;;;;4991122;28;20023;-86
2023/08/26 04:21:59;;;;;;;4.32;2.20;;;16.90;99.90;;;;;;5002927;28;20049;-86
2023/08/26 04:24:25;;;;;;;9.55;2.78;;;16.80;99.90;;;;;;4985637;28;20026;-86
2023/08/26 04:26:50;;;;;;;4.53;2.50;;;16.80;99.90;;;;;;5003837;28;20262;-85
2023/08/26 04:29:16;;;;;;;10.18;2.97;;;16.70;99.90;;;;;;4987199;28;20045;-85
2023/08/26 04:31:42;;;;;;;4.53;3.53;;;16.60;99.90;;;;;;4976969;28;20027;-85
2023/08/26 04:34:07;;;;;;;5.72;2.10;;;16.60;99.90;;;;;;4966849;28;20102;-87
2023/08/26 04:36:33;;;;;;;6.90;3.10;;;16.60;99.90;;;;;;4967370;28;20027;-87
2023/08/26 04:38:59;;;;;;;9.20;3.08;;;16.70;99.90;;;;;;4967811;28;20098;-87
2023/08/26 04:41:24;;;;;;;4.20;3.15;;;16.80;99.90;;;;;;4967652;28;20066;-86
2023/08/26 04:43:55;;;;;;;3.15;2.85;;;16.90;99.90;;;;;;4966202;28;20030;-88
2023/08/26 04:46:21;;;;;;;4.07;2.88;;;16.80;99.90;;;;;;4980167;28;20093;-75
2023/08/26 04:48:47;;;;;;;2.78;2.58;;;16.90;99.90;;;;;;4996509;28;20049;-76
2023/08/26 04:51:12;;;;;;;3.03;2.55;;;17.00;99.90;;;;;;4999343;28;20313;-76
2023/08/26 04:53:38;;;;;;;4.38;2.58;;;17.00;99.90;;;;;;4980437;28;20033;-75
2023/08/26 04:56:04;;;;;;;5.13;3.67;;;17.00;99.90;;;;;;4981927;28;20026;-75
2023/08/26 04:58:30;;;;;;;7.45;3.42;;;17.00;99.90;;;;;;4964341;28;20066;-76
2023/08/26 05:00:57;;;;;;;13.63;4.03;;;17.10;99.90;;;;;;4981542;28;20093;-75
2023/08/26 05:03:22;;;;;;;6.65;2.65;;;17.20;99.90;;;;;;4996019;28;20107;-75
2023/08/26 05:05:48;;;;;;;8.43;2.85;;;17.30;99.90;;;;;;4995048;28;20113;-75
2023/08/26 05:08:14;;;;;;;3.58;2.90;;;17.40;99.90;;;;;;5000156;28;20042;-75
2023/08/26 05:10:39;;;;;;;3.78;3.05;;;17.50;99.90;;;;;;4997594;28;20025;-75
2023/08/26 05:13:05;;;;;;;4.88;3.05;;;17.50;99.90;;;;;;5000799;28;20260;-75
2023/08/26 05:15:32;;;;;;;5.10;2.60;;;17.60;99.90;;;;;;5000502;28;20061;-75
2023/08/26 05:17:58;;;;;;;5.38;2.95;;;17.70;99.90;;;;;;5001352;28;20034;-76
2023/08/26 05:20:23;;;;;;;7.80;3.20;;;17.80;99.90;;;;;;4983690;28;20029;-75
2023/08/26 05:22:49;;;;;;;3.53;3.13;;;17.90;99.90;;;;;;5000791;28;20218;-75
2023/08/26 05:25:14;;;;;;;3.17;2.45;;;17.90;99.90;;;;;;4988204;28;20042;-76
2023/08/26 05:27:40;;;;;;;2.88;2.45;;;18.10;99.90;;;;;;4964076;28;20263;-75
2023/08/26 05:30:06;;;;;;;4.93;2.40;;;18.20;99.90;;;;;;4981427;28;20418;-75
2023/08/26 05:32:32;;;;;;;4.30;2.67;;;18.30;99.90;;;;;;4980488;28;20069;-76
2023/08/26 05:34:58;;;;;;;5.05;2.35;;;18.40;99.90;;;;;;4981487;28;20050;-75
2023/08/26 05:37:23;;;;;;;2.90;2.70;;;18.40;99.90;;;;;;4979612;28;20038;-76
2023/08/26 05:39:49;;;;;;;7.22;3.17;;;18.50;99.90;;;;;;4981206;28;20019;-75
2023/08/26 05:42:15;;;;;;;6.40;2.63;;;18.50;99.90;;;;;;4981062;28;20031;-76
2023/08/26 05:44:40;;;;;;;4.60;2.35;;;18.50;99.90;;;;;;4997780;28;20022;-74
2023/08/26 05:47:06;;;;;;;2.35;1.88;;;18.60;99.90;;;;;;5000281;28;20025;-75
2023/08/26 05:49:31;;;;;;;2.95;2.25;;;18.50;99.90;;;;;;5000450;28;20030;-74
2023/08/26 05:51:57;;;;;;;5.13;2.38;;;18.60;99.90;;;;;;5000349;28;20038;-75
2023/08/26 05:54:23;;;;;;;2.45;2.22;;;18.60;99.90;;;;;;5000590;28;20033;-75
2023/08/26 05:56:48;;;;;;;1.85;1.73;;;18.60;99.90;;;;;;5000667;28;20023;-74
2023/08/26 05:59:14;;;;;;;4.70;2.33;;;18.60;99.90;;;;;;5000558;28;20514;-75
2023/08/26 06:01:40;;;;;;;5.10;1.95;;;18.60;99.90;;;;;;4997668;28;20081;-76
2023/08/26 06:04:06;;;;;;;3.72;2.20;;;18.60;99.90;;;;;;4980772;28;20027;-75
2023/08/26 06:06:33;;;;;;;4.32;2.28;;;18.60;99.90;;;;;;4980640;28;20019;-75
2023/08/26 06:08:58;;;;;;;6.03;2.72;;;18.60;99.90;;;;;;4981523;28;20023;-75
2023/08/26 06:11:24;;;;;;;3.65;1.67;;;18.50;99.90;;;;;;4981693;28;20061;-75
2023/08/26 06:13:50;;;;;;;2.70;1.92;;;18.50;99.90;;;;;;4981253;28;20031;-74
2023/08/26 06:16:19;;;;;;;2.58;1.50;;;18.50;99.90;;;;;;4980702;28;20025;-75
2023/08/26 06:18:48;;;;;;;2.20;1.63;;;18.50;99.90;;;;;;4981002;28;20341;-75
2023/08/26 06:21:14;;;;;;;4.50;1.85;;;18.50;99.90;;;;;;4980366;28;20050;-75
2023/08/26 06:23:40;;;;;;;2.05;1.58;;;18.40;99.90;;;;;;4980189;28;20019;-74
2023/08/26 06:26:06;;;;;;;8.60;2.58;;;18.50;99.90;;;;;;4963063;28;20046;-75
2023/08/26 06:28:32;;;;;;;1.65;1.52;;;18.50;99.90;;;;;;4981409;28;20054;-75
2023/08/26 06:30:58;;;;;;;4.43;1.33;;;18.50;99.90;;;;;;4980485;28;20032;-76
2023/08/26 06:33:24;;;;;;;4.13;1.90;;;18.60;99.90;;;;;;4976230;28;20081;-75
2023/08/26 06:35:49;;;;;;;3.70;1.33;;;18.60;99.90;;;;;;4976597;28;20293;-75
2023/08/26 06:38:15;;;;;;;2.67;2.00;;;18.70;99.90;;;;;;4977730;28;20397;-75
2023/08/26 06:40:41;;;;;;;2.47;1.40;;;18.70;99.90;;;;;;4997564;28;20101;-75
2023/08/26 06:43:07;;;;;;;2.58;1.73;;;18.70;99.90;;;;;;4995829;28;20354;-75
2023/08/26 06:45:33;;;;;;;7.20;2.00;;;18.70;99.90;;;;;;4998047;28;20056;-75
2023/08/26 06:47:59;;;;;;;4.13;1.95;;;18.80;99.90;;;;;;4992789;28;20326;-74
2023/08/26 06:50:24;;;;;;;2.70;1.90;;;18.90;99.90;;;;;;5000927;28;20035;-76
2023/08/26 06:52:50;;;;;;;1.63;1.23;;;18.80;99.90;;;;;;5001184;28;20337;-75
2023/08/26 06:55:17;;;;;;;5.45;1.77;;;18.80;99.90;;;;;;4998593;28;20077;-77
2023/08/26 06:57:43;;;;;;;13.00;2.83;;;18.80;99.90;;;;;;5000405;28;20098;-75
2023/08/26 07:00:09;;;;;;;6.38;1.35;;;18.80;99.90;;;;;;4999230;28;20030;-74
2023/08/26 07:02:35;;;;;;;4.10;1.70;;;18.90;99.90;;;;;;4999470;28;20026;-78
2023/08/26 07:05:01;;;;;;;6.10;2.08;;;18.90;99.90;;;;;;4996410;28;20119;-77
2023/08/26 07:07:26;;;;;;;3.65;1.77;;;19.00;99.90;;;;;;4999616;28;20390;-80
2023/08/26 07:09:52;;;;;;;6.32;1.45;;;19.00;99.90;;;;;;4999734;28;20022;-79
2023/08/26 07:12:18;;;;;;;4.65;2.13;;;19.00;99.90;;;;;;4998074;28;20018;-75
2023/08/26 07:14:43;;;;;;;1.58;1.45;;;19.10;99.90;;;;;;4982207;28;20041;-77
2023/08/26 07:17:09;;;;;;;4.65;1.52;;;19.10;99.90;;;;;;4981339;28;20102;-76
2023/08/26 07:19:35;;;;;;;5.32;1.58;;;19.20;99.90;;;;;;4996583;28;20041;-77
2023/08/26 07:22:00;;;;;;;25.45;1.98;;;19.30;99.90;;;;;;4998276;28;20058;-77
2023/08/26 07:24:26;;;;;;;2.55;1.55;;;19.30;99.90;;;;;;4997376;28;20314;-73
2023/08/26 07:26:52;;;;;;;2.28;1.40;;;19.50;99.90;;;;;;4973899;28;20022;-73
2023/08/26 07:29:17;;;;;;;2.00;1.38;;;19.50;99.90;;;;;;4995466;28;20275;-74
2023/08/26 07:31:43;;;;;;;4.50;1.48;;;19.50;99.90;;;;;;4997626;28;20034;-73
2023/08/26 07:34:09;;;;;;;2.20;1.35;;;19.60;99.90;;;;;;4997796;28;20026;-76
2023/08/26 07:36:35;;;;;;;2.05;1.40;;;19.50;99.90;;;;;;4982439;28;20027;-73
2023/08/26 07:39:00;;;;;;;3.00;1.63;;;19.50;99.90;;;;;;4980038;28;20046;-71
2023/08/26 07:41:26;;;;;;;4.68;1.17;;;19.50;99.90;;;;;;4979816;28;20031;-73
2023/08/26 07:43:52;;;;;;;2.17;1.33;;;19.30;99.90;;;;;;4979836;28;20230;-73
2023/08/26 07:46:22;;;;;;;1.85;1.38;;;19.30;99.90;;;;;;4979912;28;20094;-74
2023/08/26 07:48:47;;;;;;;5.65;1.38;;;19.30;99.90;;;;;;4979761;28;20027;-73
2023/08/26 07:51:13;;;;;;;6.28;1.88;;;19.30;99.90;;;;;;4979675;28;20080;-74
2023/08/26 07:53:38;;;;;;;10.15;3.25;;;19.30;99.90;;;;;;4978880;28;20326;-78
2023/08/26 07:56:04;;;;;;;4.82;1.70;;;19.30;99.90;;;;;;4990352;28;20014;-79
2023/08/26 07:58:30;;;;;;;1.58;1.10;;;19.20;99.90;;;;;;4998948;28;20101;-76
2023/08/26 08:00:55;;;;;;;2.40;1.50;;;19.20;99.90;;;;;;4999072;28;20046;-74
2023/08/26 08:03:21;;;;;;;2.28;1.13;;;19.20;99.90;;;;;;4999007;28;20077;-75
2023/08/26 08:05:47;;;;;;;2.30;1.58;;;19.20;99.90;;;;;;5000718;28;20026;-83
2023/08/26 08:08:12;;;;;;;2.10;1.23;;;19.30;99.90;;;;;;5003350;28;20065;-75
2023/08/26 08:10:38;;;;;;;2.72;1.30;;;19.30;99.90;;;;;;5003738;28;20026;-75
2023/08/26 08:13:04;;;;;;;14.10;7.97;;;19.40;99.90;;;;;;5001463;28;20029;-75
2023/08/26 08:15:30;;;;;;;3.65;1.38;;;19.50;99.90;;;;;;5002431;28;20313;-75
2023/08/26 08:17:55;;;;;;;5.47;3.38;;;19.60;99.90;;;;;;5001711;28;20014;-74
2023/08/26 08:20:21;;;;;;;3.97;1.20;;;19.70;99.90;;;;;;5001912;28;20024;-74
2023/08/26 08:22:47;;;;;;;1.67;1.27;;;19.80;99.90;;;;;;5002114;28;20035;-77
2023/08/26 08:25:13;;;;;;;3.58;1.65;;;19.80;99.90;;;;;;5003258;28;20010;-79
2023/08/26 08:27:39;;;;;;;2.83;1.42;;;19.70;99.90;;;;;;5002138;28;20048;-80
2023/08/26 08:30:06;;;;;;;3.13;1.58;;;19.60;99.90;;;;;;5002005;28;20022;-76
2023/08/26 08:32:33;;;;;;;2.60;1.50;;;19.50;99.90;;;;;;5001128;28;20037;-74
2023/08/26 08:34:59;;;;;;;1.77;1.38;;;19.30;99.90;;;;;;5002824;28;20018;-75
2023/08/26 08:37:24;;;;;;;1.45;1.30;;;19.20;99.90;;;;;;5003017;28;20151;-77
2023/08/26 08:39:50;;;;;;;5.30;1.80;;;19.20;99.90;;;;;;5003472;28;20076;-75
2023/08/26 08:42:17;;;;;;;2.22;1.00;;;19.20;99.90;;;;;;5002875;28;20053;-75
2023/08/26 08:44:44;;;;;;;3.88;1.80;;;19.20;99.90;;;;;;5002823;28;20214;-80
2023/08/26 08:47:10;;;;;;;4.93;2.00;;;19.30;99.90;;;;;;4996126;28;20041;-81
2023/08/26 08:49:37;;;;;;;1.67;1.42;;;19.40;99.90;;;;;;4998328;28;20010;-74
2023/08/26 08:52:06;;;;;;;1.90;1.00;;;19.60;99.90;;;;;;4999603;28;20034;-77
2023/08/26 08:54:33;;;;;;;3.38;2.78;;;19.80;99.90;;;;;;5002764;28;20018;-80
2023/08/26 08:57:00;;;;;;;3.40;1.52;;;20.00;99.90;;;;;;4998149;28;20042;-80
2023/08/26 08:59:29;;;;;;;5.90;1.92;;;20.00;99.90;;;;;;5002050;28;20021;-75
2023/08/26 09:01:57;;;;;;;1.10;1.00;;;20.10;99.90;;;;;;4996901;28;20069;-79
2023/08/26 09:04:24;;;;;;;4.43;1.63;;;19.90;99.90;;;;;;4983906;28;20033;-79
2023/08/26 09:06:50;;;;;;;2.65;1.50;;;19.90;99.90;;;;;;4969960;28;20031;-79
2023/08/26 09:09:16;;;;;;;1.50;1.40;;;20.00;99.90;;;;;;4989872;28;20053;-76
2023/08/26 09:11:42;;;;;;;2.95;1.20;;;19.90;99.90;;;;;;4990109;28;20082;-82
2023/08/26 09:14:08;;;;;;;2.92;2.00;;;19.60;99.90;;;;;;4979940;28;20110;-81
2023/08/26 09:16:35;;;;;;;5.88;1.50;;;19.30;99.90;;;;;;4964129;28;20033;-82
2023/08/26 09:19:03;;;;;;;1.42;1.02;;;19.20;99.90;;;;;;4984333;28;20019;-79
2023/08/26 09:21:28;;;;;;;6.47;1.88;;;19.30;99.90;;;;;;4966027;28;20486;-79
2023/08/26 09:23:55;;;;;;;4.22;1.10;;;19.50;99.90;;;;;;4981040;28;20023;-77
2023/08/26 09:26:24;;;;;;;1.42;1.20;;;19.50;99.90;;;;;;4965173;28;20030;-78
2023/08/26 09:28:51;;;;;;;1.53;0.90;;;19.20;99.90;;;;;;4967291;28;20070;-77
2023/08/26 09:31:17;;;;;;;2.50;1.40;;;18.80;99.90;;;;;;4967705;28;20033;-78
2023/08/26 09:33:47;;;;;;;1.40;1.10;;;18.50;99.90;;;;;;4965397;28;20029;-78
2023/08/26 09:36:13;;;;;;;5.80;2.67;;;18.20;99.90;;;;;;4983292;28;20026;-78
2023/08/26 09:38:47;;;;;;;2.85;1.40;;;18.00;99.90;;;;;;4983602;28;20064;-78
2023/08/26 09:41:19;;;;;;;5.45;1.88;;;17.70;99.90;;;;;;4967333;28;20034;-78
2023/08/26 09:43:47;;;;;;;2.47;1.13;;;17.50;99.90;;;;;;4966758;28;20022;-76
2023/08/26 09:46:20;;;;;;;3.95;1.48;;;17.40;99.90;;;;;;4984390;28;20027;-78
2023/08/26 09:48:48;;;;;;;4.75;1.08;;;17.20;99.90;;;;;;4984214;28;20050;-76
2023/08/26 09:51:27;;;;;;;2.65;1.45;;;17.00;99.90;;;;;;4966953;28;20163;-78
2023/08/26 09:53:57;;;;;;;4.45;1.92;;;16.80;99.90;;;;;;4965832;28;20086;-77
2023/08/26 09:56:24;;;;;;;4.25;2.10;;;16.70;99.90;;;;;;4958336;28;20038;-77
2023/08/26 09:58:55;;;;;;;2.47;1.85;;;16.70;99.90;;;;;;4975041;28;20023;-77
2023/08/26 10:01:22;;;;;;;2.40;2.08;;;16.90;99.90;;;;;;4972764;28;20046;-77
2023/08/26 10:04:05;;;;;;;1.90;1.70;;;16.90;99.90;;;;;;4996060;28;20057;-77
2023/08/26 10:06:36;;;;;;;2.83;2.03;;;17.00;99.90;;;;;;4982457;28;20026;-78
2023/08/26 10:09:08;;;;;;;5.60;1.60;;;17.10;99.90;;;;;;4978916;28;20041;-77
2023/08/26 10:11:39;;;;;;;4.43;1.27;;;17.20;99.90;;;;;;4980656;28;20092;-77
2023/08/26 10:14:11;;;;;;;1.60;1.50;;;17.40;99.90;;;;;;4998937;28;20037;-78
2023/08/26 10:16:38;;;;;;;1.20;1.10;;;17.50;99.90;;;;;;4981450;28;20026;-79
2023/08/26 10:19:04;;;;;;;1.30;1.20;;;17.70;99.90;;;;;;4983191;28;20031;-77
2023/08/26 10:21:31;;;;;;;45.78;24.48;;;17.60;99.90;;;;;;5000544;28;20070;-78
2023/08/26 10:23:57;;;;;;;3.90;1.70;;;17.60;99.90;;;;;;4980243;28;20150;-79
2023/08/26 10:26:25;;;;;;;2.53;1.42;;;17.50;99.90;;;;;;4980792;28;20027;-81
2023/08/26 10:28:51;;;;;;;2.22;2.03;;;17.50;99.90;;;;;;4964696;28;20026;-79
2023/08/26 10:31:17;;;;;;;1.92;1.70;;;17.50;99.90;;;;;;4980970;28;20184;-80
2023/08/26 10:34:05;;;;;;;2.53;1.90;;;17.70;99.90;;;;;;4963519;28;20090;-79
2023/08/26 10:36:34;;;;;;;3.50;1.67;;;17.70;99.90;;;;;;4982298;28;20105;-80
2023/08/26 10:39:00;;;;;;;1.45;1.35;;;17.70;99.90;;;;;;4962481;28;20375;-78
2023/08/26 10:41:26;;;;;;;1.40;1.25;;;17.60;99.90;;;;;;4981282;28;20043;-79
2023/08/26 10:43:56;;;;;;;1.40;1.30;;;17.60;99.90;;;;;;4982344;28;20046;-79
2023/08/26 10:46:32;;;;;;;2.15;1.55;;;17.70;99.90;;;;;;4962137;28;20050;-78
2023/08/26 10:48:59;;;;;;;2.13;1.73;;;17.80;99.90;;;;;;4976984;28;20101;-79
2023/08/26 10:51:25;;;;;;;2.88;1.42;;;17.80;99.90;;;;;;4973198;28;20023;-79
2023/08/26 10:53:51;;;;;;;1.95;1.85;;;17.80;99.90;;;;;;4976812;28;20357;-78
2023/08/26 10:56:21;;;;;;;6.38;1.77;;;17.70;99.90;;;;;;4978744;28;20357;-79
2023/08/26 10:58:48;;;;;;;6.70;1.98;;;17.70;99.90;;;;;;4980813;28;20086;-78
2023/08/26 11:01:17;;;;;;;3.22;2.35;;;17.70;99.90;;;;;;4976747;28;20130;-79
2023/08/26 11:03:46;;;;;;;2.95;1.75;;;17.70;99.90;;;;;;4978233;28;20031;-78
2023/08/26 11:06:18;;;;;;;5.30;3.42;;;17.70;99.90;;;;;;4974995;28;20026;-78
2023/08/26 11:08:53;;;;;;;6.35;4.75;;;17.70;99.90;;;;;;4969053;28;20041;-77
2023/08/26 11:11:19;;;;;;;6.97;4.80;;;17.70;99.90;;;;;;4970315;28;20476;-77
2023/08/26 11:13:45;;;;;;;2.17;1.98;;;17.70;99.90;;;;;;4984515;28;20088;-78
2023/08/26 11:16:12;;;;;;;4.03;2.47;;;17.60;99.90;;;;;;4989317;28;20476;-78
2023/08/26 11:18:37;;;;;;;2.00;1.50;;;17.60;99.90;;;;;;4986904;28;20176;-78
2023/08/26 11:21:04;;;;;;;5.35;2.13;;;17.60;99.90;;;;;;4988053;28;20525;-77
2023/08/26 11:23:32;;;;;;;12.18;7.95;;;17.40;99.90;;;;;;4973514;28;20027;-78
2023/08/26 11:25:58;;;;;;;7.32;3.40;;;17.40;99.90;;;;;;4987574;28;20035;-79
2023/08/26 11:28:30;;;;;;;10.57;3.90;;;17.40;99.90;;;;;;4987954;28;20022;-78
2023/08/26 11:30:56;;;;;;;1.90;1.63;;;17.30;99.90;;;;;;4988465;28;20019;-77
2023/08/26 11:33:23;;;;;;;5.38;2.53;;;17.40;99.90;;;;;;4971816;28;20027;-78
2023/08/26 11:35:50;;;;;;;3.83;2.33;;;17.40;99.90;;;;;;4988200;28;20034;-78
2023/08/26 11:38:16;;;;;;;2.60;2.00;;;17.30;99.90;;;;;;4988529;28;20037;-78
2023/08/26 11:40:42;;;;;;;12.95;3.92;;;17.30;99.90;;;;;;4974015;28;20066;-78
2023/08/26 11:43:12;;;;;;;2.33;2.13;;;17.40;99.90;;;;;;4993285;28;20027;-78
2023/08/26 11:45:42;;;;;;;6.65;3.40;;;17.40;99.90;;;;;;4993164;28;20105;-78
2023/08/26 11:48:12;;;;;;;2.53;2.33;;;17.40;99.90;;;;;;4992495;28;20031;-79
2023/08/26 11:50:40;;;;;;;5.55;3.03;;;17.50;99.90;;;;;;4993317;28;20033;-78
2023/08/26 11:53:06;;;;;;;4.03;2.28;;;17.70;99.90;;;;;;4974994;28;20049;-78
2023/08/26 11:55:32;;;;;;;7.50;2.78;;;17.40;99.90;;;;;;4971498;28;20038;-78
2023/08/26 11:58:00;;;;;;;2.58;1.75;;;17.20;99.90;;;;;;4973764;28;20567;-78
2023/08/26 12:00:26;;;;;;;2.00;1.70;;;17.20;99.90;;;;;;4974290;28;20050;-78
2023/08/26 12:02:54;;;;;;;3.75;2.03;;;17.20;99.90;;;;;;4974160;28;20035;-78
2023/08/26 12:05:20;;;;;;;5.70;2.78;;;17.20;99.90;;;;;;4973186;28;20488;-80
2023/08/26 12:07:47;;;;;;;5.55;2.60;;;17.30;99.90;;;;;;4971815;28;20026;-78
2023/08/26 12:10:14;;;;;;;6.38;2.90;;;17.30;99.90;;;;;;4956057;28;20424;-77
2023/08/26 12:12:40;;;;;;;3.20;2.05;;;17.40;99.90;;;;;;4971737;28;20522;-78
2023/08/26 12:15:08;;;;;;;2.72;2.10;;;17.40;99.90;;;;;;4973390;28;20101;-78
2023/08/26 12:17:54;;;;;;;3.72;2.00;;;17.50;99.90;;;;;;4973503;28;20504;-78
2023/08/26 12:20:27;;;;;;;5.45;1.90;;;17.40;99.90;;;;;;4973192;28;20203;-78
2023/08/26 12:22:55;;;;;;;2.38;2.13;;;17.30;99.90;;;;;;4955799;28;20443;-78
2023/08/26 12:25:26;;;;;;;6.03;2.70;;;17.20;99.90;;;;;;4973095;28;20041;-78
2023/08/26 12:27:52;;;;;;;3.53;2.20;;;17.40;99.90;;;;;;4982294;28;20113;-77
2023/08/26 12:30:19;;;;;;;2.40;1.70;;;17.50;99.90;;;;;;4992264;28;20023;-83
2023/08/26 12:32:46;;;;;;;2.35;1.80;;;17.50;99.90;;;;;;4990960;28;20030;-77
2023/08/26 12:35:12;;;;;;;4.93;1.65;;;17.50;99.90;;;;;;4992069;28;20026;-79
2023/08/26 12:37:38;;;;;;;3.58;2.15;;;17.40;99.90;;;;;;4993238;28;20372;-87
2023/08/26 12:40:06;;;;;;;1.80;1.50;;;17.20;99.90;;;;;;4975083;28;20569;-78
2023/08/26 12:42:32;;;;;;;4.70;2.80;;;17.10;99.90;;;;;;4992090;28;20053;-77